createdAt,value
2022-08-11T00:00:16.568Z,14.9
2022-08-11T00:01:15.381Z,15.1
2022-08-11T00:02:20.213Z,15.1
2022-08-11T00:03:15.040Z,15.1
2022-08-11T00:04:14.194Z,15.1
2022-08-11T00:05:14.421Z,15.1
2022-08-11T00:06:13.942Z,15.1
2022-08-11T00:07:16.475Z,15.1
2022-08-11T00:08:16.012Z,15.1
2022-08-11T00:09:17.532Z,15.1
2022-08-11T00:10:09.913Z,15.1
2022-08-11T00:11:18.150Z,15.1
2022-08-11T00:12:17.578Z,15.1
2022-08-11T00:13:20.990Z,15.2
2022-08-11T00:14:13.229Z,15.2
2022-08-11T00:15:15.500Z,15.1
2022-08-11T00:16:15.298Z,15.1
2022-08-11T00:17:16.010Z,15.2
2022-08-11T00:18:15.620Z,15.2
2022-08-11T00:20:16.409Z,15.1
2022-08-11T00:20:20.361Z,15.1
2022-08-11T00:21:10.269Z,15.1
2022-08-11T00:22:19.318Z,15.2
2022-08-11T00:23:13.149Z,15.2
2022-08-11T00:24:15.752Z,15.2
2022-08-11T00:25:10.919Z,15.1
2022-08-11T00:26:17.742Z,15.1
2022-08-11T00:27:18.605Z,15.1
2022-08-11T00:28:14.597Z,15
2022-08-11T00:29:15.641Z,15
2022-08-11T00:30:14.890Z,15.1
2022-08-11T00:31:15.965Z,15.1
2022-08-11T00:32:18.324Z,15
2022-08-11T00:33:16.071Z,15
2022-08-11T00:34:13.849Z,15
2022-08-11T00:36:01.055Z,14.9
2022-08-11T00:36:12.906Z,14.9
2022-08-11T00:37:14.503Z,14.9
2022-08-11T00:38:16.702Z,15
2022-08-11T00:39:17.364Z,15.1
2022-08-11T00:40:15.365Z,15.1
2022-08-11T00:41:17.715Z,15.2
2022-08-11T00:42:15.255Z,15.2
2022-08-11T00:43:24.854Z,15.1
2022-08-11T00:44:17.351Z,15.1
2022-08-11T00:45:16.090Z,15.3
2022-08-11T00:46:18.916Z,15.3
2022-08-11T00:47:17.546Z,15.3
2022-08-11T00:48:16.335Z,15.3
2022-08-11T00:49:16.159Z,15.3
2022-08-11T00:50:16.133Z,15.4
2022-08-11T00:51:08.052Z,15.4
2022-08-11T00:52:24.063Z,15.4
2022-08-11T00:53:19.031Z,15.4
2022-08-11T00:54:14.823Z,15.4
2022-08-11T00:55:16.883Z,15.4
2022-08-11T00:56:18.625Z,15.4
2022-08-11T00:57:41.183Z,15.4
2022-08-11T00:58:14.817Z,15.4
2022-08-11T00:59:39.444Z,15.4
2022-08-11T01:00:13.265Z,15.3
2022-08-11T01:01:21.715Z,15.3
2022-08-11T01:02:13.651Z,15.3
2022-08-11T01:03:19.798Z,15.3
2022-08-11T01:04:15.752Z,15.3
2022-08-11T01:05:15.567Z,15.3
2022-08-11T01:06:15.201Z,15.3
2022-08-11T01:07:16.661Z,15.2
2022-08-11T01:08:12.809Z,15.2
2022-08-11T01:09:26.432Z,15.2
2022-08-11T01:10:12.624Z,15.2
2022-08-11T01:11:12.547Z,15.3
2022-08-11T01:12:14.493Z,15.3
2022-08-11T01:13:18.935Z,15.2
2022-08-11T01:14:15.668Z,15.1
2022-08-11T01:15:16.797Z,15.1
2022-08-11T01:16:14.046Z,15.1
2022-08-11T01:17:18.457Z,15.1
2022-08-11T01:18:19.063Z,15.1
2022-08-11T01:19:15.529Z,15.1
2022-08-11T01:20:52.155Z,15.1
2022-08-11T01:21:15.556Z,15.1
2022-08-11T01:22:18.994Z,15.1
2022-08-11T01:23:21.635Z,15.1
2022-08-11T01:24:21.135Z,15.1
2022-08-11T01:25:21.734Z,15.1
2022-08-11T01:26:07.182Z,15.1
2022-08-11T01:27:23.806Z,15.1
2022-08-11T01:28:16.678Z,15
2022-08-11T01:29:15.094Z,15
2022-08-11T01:30:15.099Z,14.9
2022-08-11T01:31:12.608Z,15
2022-08-11T01:32:17.055Z,15
2022-08-11T01:33:16.806Z,15
2022-08-11T01:34:15.582Z,14.9
2022-08-11T01:35:18.806Z,14.9
2022-08-11T01:36:16.201Z,15
2022-08-11T01:37:13.244Z,15
2022-08-11T01:38:18.285Z,15
2022-08-11T01:39:22.585Z,14.9
2022-08-11T01:40:09.626Z,14.9
2022-08-11T01:41:20.046Z,15
2022-08-11T01:42:11.408Z,15
2022-08-11T01:43:17.563Z,15
2022-08-11T01:44:17.232Z,14.9
2022-08-11T01:45:18.114Z,14.9
2022-08-11T01:46:15.145Z,14.9
2022-08-11T01:47:17.112Z,14.9
2022-08-11T01:48:15.308Z,14.9
2022-08-11T01:50:13.752Z,14.9
2022-08-11T01:50:17.363Z,14.9
2022-08-11T01:51:07.315Z,14.9
2022-08-11T01:52:20.616Z,14.9
2022-08-11T01:53:12.453Z,14.9
2022-08-11T01:54:14.930Z,14.9
2022-08-11T01:55:16.290Z,14.9
2022-08-11T01:56:15.265Z,14.9
2022-08-11T01:57:16.634Z,14.9
2022-08-11T01:58:12.129Z,14.9
2022-08-11T01:59:21.005Z,14.8
2022-08-11T02:00:15.344Z,14.8
2022-08-11T02:01:15.141Z,14.8
2022-08-11T02:02:23.839Z,14.8
2022-08-11T02:03:19.428Z,14.8
2022-08-11T02:04:16.685Z,14.8
2022-08-11T02:05:14.397Z,14.8
2022-08-11T02:06:16.467Z,14.8
2022-08-11T02:07:18.474Z,14.8
2022-08-11T02:08:09.119Z,14.8
2022-08-11T02:09:23.012Z,14.8
2022-08-11T02:10:14.817Z,14.8
2022-08-11T02:11:18.245Z,14.7
2022-08-11T02:12:17.858Z,14.7
2022-08-11T02:13:11.696Z,14.6
2022-08-11T02:14:14.801Z,14.6
2022-08-11T02:15:11.204Z,14.6
2022-08-11T02:16:18.941Z,14.6
2022-08-11T02:17:16.322Z,14.6
2022-08-11T02:18:20.287Z,14.6
2022-08-11T02:19:15.949Z,14.6
2022-08-11T02:20:16.894Z,14.6
2022-08-11T02:21:17.801Z,14.5
2022-08-11T02:22:14.549Z,14.6
2022-08-11T02:23:58.661Z,14.6
2022-08-11T02:24:16.122Z,14.5
2022-08-11T02:25:19.696Z,14.5
2022-08-11T02:26:13.403Z,14.5
2022-08-11T02:27:17.704Z,14.5
2022-08-11T02:28:16.164Z,14.5
2022-08-11T02:29:14.392Z,14.5
2022-08-11T02:30:15.469Z,14.4
2022-08-11T02:32:32.770Z,14.4
2022-08-11T02:32:34.422Z,14.5
2022-08-11T02:33:13.114Z,14.5
2022-08-11T02:34:15.832Z,14.5
2022-08-11T02:35:17.674Z,14.4
2022-08-11T02:36:14.461Z,14.4
2022-08-11T02:37:14.545Z,14.4
2022-08-11T02:38:17.743Z,14.4
2022-08-11T02:39:16.011Z,14.4
2022-08-11T02:40:08.802Z,14.4
2022-08-11T02:41:16.293Z,14.5
2022-08-11T02:42:40.013Z,14.5
2022-08-11T02:43:13.836Z,14.4
2022-08-11T02:44:13.795Z,14.3
2022-08-11T02:45:17.429Z,14.3
2022-08-11T02:46:22.586Z,14.3
2022-08-11T02:47:16.799Z,14.3
2022-08-11T02:48:14.278Z,14.3
2022-08-11T02:49:13.905Z,14.1
2022-08-11T02:50:18.409Z,14.1
2022-08-11T02:51:23.967Z,14.2
2022-08-11T02:52:15.130Z,14.2
2022-08-11T02:53:17.022Z,14.2
2022-08-11T02:54:19.829Z,14.2
2022-08-11T02:55:59.925Z,14.2
2022-08-11T02:56:16.754Z,14.3
2022-08-11T02:57:16.005Z,14.3
2022-08-11T02:58:14.447Z,14.1
2022-08-11T02:59:19.265Z,14
2022-08-11T03:00:17.778Z,14
2022-08-11T03:01:15.151Z,14
2022-08-11T03:02:16.712Z,14.1
2022-08-11T03:03:18.277Z,14
2022-08-11T03:04:15.637Z,14
2022-08-11T03:05:14.600Z,14
2022-08-11T03:06:16.244Z,14.1
2022-08-11T03:07:33.535Z,14
2022-08-11T03:08:16.881Z,14
2022-08-11T03:09:13.975Z,13.9
2022-08-11T03:10:16.724Z,13.9
2022-08-11T03:11:15.983Z,13.9
2022-08-11T03:12:16.249Z,13.8
2022-08-11T03:13:22.188Z,13.8
2022-08-11T03:14:07.174Z,13.8
2022-08-11T03:15:21.639Z,13.8
2022-08-11T03:16:14.418Z,13.8
2022-08-11T03:17:16.219Z,13.8
2022-08-11T03:18:18.491Z,13.9
2022-08-11T03:19:16.092Z,13.9
2022-08-11T03:20:13.521Z,13.9
2022-08-11T03:21:16.398Z,14.1
2022-08-11T03:22:16.510Z,14.1
2022-08-11T03:23:23.877Z,14.1
2022-08-11T03:24:13.234Z,14.1
2022-08-11T03:25:17.368Z,14.1
2022-08-11T03:26:16.894Z,14.1
2022-08-11T03:27:18.091Z,14.1
2022-08-11T03:28:22.353Z,14
2022-08-11T03:29:27.248Z,14
2022-08-11T03:30:16.579Z,14.1
2022-08-11T03:31:19.317Z,14.1
2022-08-11T03:32:17.511Z,14.1
2022-08-11T03:33:15.480Z,14.1
2022-08-11T03:34:17.749Z,14.1
2022-08-11T03:35:25.533Z,14.1
2022-08-11T03:36:13.538Z,14.1
2022-08-11T03:37:21.046Z,14.1
2022-08-11T03:38:17.891Z,14.1
2022-08-11T03:39:14.871Z,14.2
2022-08-11T03:40:16.781Z,14.2
2022-08-11T03:42:10.523Z,14.3
2022-08-11T03:42:14.988Z,14.2
2022-08-11T03:43:24.061Z,14.2
2022-08-11T03:44:08.311Z,14.2
2022-08-11T03:45:18.224Z,14.2
2022-08-11T03:46:14.909Z,14.1
2022-08-11T03:47:17.691Z,14.1
2022-08-11T03:48:13.359Z,14
2022-08-11T03:49:17.145Z,13.9
2022-08-11T03:50:19.225Z,13.9
2022-08-11T03:51:14.833Z,13.7
2022-08-11T03:52:06.735Z,13.7
2022-08-11T03:53:13.618Z,13.8
2022-08-11T03:54:13.920Z,13.7
2022-08-11T03:55:18.846Z,13.6
2022-08-11T03:56:18.554Z,13.6
2022-08-11T03:57:16.110Z,13.6
2022-08-11T03:58:19.256Z,13.4
2022-08-11T03:59:17.035Z,13.4
2022-08-11T04:00:07.522Z,13.4
2022-08-11T04:01:19.305Z,13.3
2022-08-11T04:02:13.680Z,13.3
2022-08-11T04:03:23.754Z,13.3
2022-08-11T04:04:16.087Z,13.2
2022-08-11T04:05:15.026Z,13.2
2022-08-11T04:06:13.981Z,13.1
2022-08-11T04:07:21.904Z,13
2022-08-11T04:08:21.789Z,13
2022-08-11T04:09:21.675Z,13
2022-08-11T04:10:08.065Z,13
2022-08-11T04:11:17.931Z,12.9
2022-08-11T04:12:38.653Z,13
2022-08-11T04:13:16.937Z,12.9
2022-08-11T04:14:16.341Z,12.9
2022-08-11T04:15:18.772Z,12.9
2022-08-11T04:16:16.627Z,13
2022-08-11T04:17:13.681Z,13.1
2022-08-11T04:18:20.051Z,13.1
2022-08-11T04:19:16.538Z,12.9
2022-08-11T04:20:20.910Z,12.9
2022-08-11T04:21:13.504Z,12.9
2022-08-11T04:22:17.509Z,12.9
2022-08-11T04:24:40.111Z,12.8
2022-08-11T04:24:44.036Z,12.8
2022-08-11T04:26:22.783Z,12.8
2022-08-11T04:27:21.148Z,12.9
2022-08-11T04:28:33.537Z,12.9
2022-08-11T04:29:17.795Z,12.9
2022-08-11T04:30:16.873Z,12.9
2022-08-11T04:31:56.499Z,12.9
2022-08-11T04:32:13.045Z,12.9
2022-08-11T04:33:22.352Z,13.1
2022-08-11T04:34:16.481Z,13.2
2022-08-11T04:35:20.143Z,13.2
2022-08-11T04:36:15.745Z,13.3
2022-08-11T04:37:14.722Z,13.3
2022-08-11T04:38:15.552Z,13.3
2022-08-11T04:39:18.862Z,13.3
2022-08-11T04:40:09.009Z,13.3
2022-08-11T04:41:19.024Z,13.4
2022-08-11T04:42:13.247Z,13.4
2022-08-11T04:43:13.634Z,13.4
2022-08-11T04:44:14.695Z,13.4
2022-08-11T04:45:15.255Z,13.4
2022-08-11T04:46:14.593Z,13.4
2022-08-11T04:47:14.651Z,13.6
2022-08-11T04:48:15.294Z,13.6
2022-08-11T04:49:24.311Z,13.6
2022-08-11T04:50:13.210Z,13.6
2022-08-11T04:51:21.136Z,13.7
2022-08-11T04:52:09.211Z,13.8
2022-08-11T04:53:19.285Z,13.8
2022-08-11T04:54:14.936Z,13.8
2022-08-11T04:55:21.106Z,13.9
2022-08-11T04:56:16.580Z,13.9
2022-08-11T04:57:15.859Z,13.9
2022-08-11T04:58:15.686Z,14
2022-08-11T04:59:13.406Z,14.1
2022-08-11T05:00:17.831Z,14.1
2022-08-11T05:01:15.830Z,14.1
2022-08-11T05:02:21.329Z,14.1
2022-08-11T05:03:14.070Z,14.3
2022-08-11T05:04:13.868Z,14.3
2022-08-11T05:05:13.781Z,14.3
2022-08-11T05:06:18.893Z,14.4
2022-08-11T05:07:07.577Z,14.4
2022-08-11T05:08:25.520Z,14.5
2022-08-11T05:09:19.003Z,14.5
2022-08-11T05:10:08.262Z,14.5
2022-08-11T05:11:20.794Z,14.6
2022-08-11T05:12:17.765Z,14.7
2022-08-11T05:13:16.639Z,14.8
2022-08-11T05:14:14.226Z,14.8
2022-08-11T05:15:17.575Z,14.9
2022-08-11T05:16:13.296Z,14.9
2022-08-11T05:17:17.023Z,15.2
2022-08-11T05:18:14.343Z,15.5
2022-08-11T05:19:21.434Z,15.6
2022-08-11T05:20:14.818Z,15.5
2022-08-11T05:21:17.492Z,15.5
2022-08-11T05:22:07.093Z,15.5
2022-08-11T05:23:09.201Z,15.7
2022-08-11T05:24:15.383Z,15.9
2022-08-11T05:26:49.451Z,15.9
2022-08-11T05:26:52.533Z,16
2022-08-11T05:27:17.483Z,16
2022-08-11T05:28:15.996Z,16
2022-08-11T05:29:24.115Z,16
2022-08-11T05:30:15.266Z,16.1
2022-08-11T05:31:19.157Z,16.1
2022-08-11T05:32:16.009Z,16.2
2022-08-11T05:33:15.825Z,16.2
2022-08-11T05:34:17.920Z,16.3
2022-08-11T05:36:05.523Z,16.3
2022-08-11T05:36:07.653Z,16.3
2022-08-11T05:37:30.920Z,16.4
2022-08-11T05:38:20.805Z,16.5
2022-08-11T05:39:15.594Z,16.6
2022-08-11T05:40:15.140Z,16.6
2022-08-11T05:41:16.149Z,16.8
2022-08-11T05:42:34.322Z,16.8
2022-08-11T05:43:15.831Z,16.8
2022-08-11T05:44:26.200Z,16.9
2022-08-11T05:45:21.832Z,16.9
2022-08-11T05:46:18.126Z,16.9
2022-08-11T05:47:15.969Z,17
2022-08-11T05:48:13.724Z,17.1
2022-08-11T05:49:14.644Z,17.1
2022-08-11T05:50:33.343Z,17.1
2022-08-11T05:51:20.263Z,17.1
2022-08-11T05:52:20.969Z,17.3
2022-08-11T05:53:18.139Z,17.4
2022-08-11T05:54:33.217Z,17.4
2022-08-11T05:55:15.063Z,17.6
2022-08-11T05:56:15.585Z,17.6
2022-08-11T05:57:54.884Z,17.6
2022-08-11T05:58:14.791Z,17.7
2022-08-11T05:59:11.847Z,17.8
2022-08-11T06:00:18.837Z,17.8
2022-08-11T06:01:16.535Z,17.8
2022-08-11T06:02:07.024Z,17.9
2022-08-11T06:03:15.380Z,17.9
2022-08-11T06:04:17.088Z,17.9
2022-08-11T06:05:15.672Z,17.9
2022-08-11T06:06:13.902Z,18.3
2022-08-11T06:07:15.624Z,18.3
2022-08-11T06:08:14.849Z,18.7
2022-08-11T06:09:18.130Z,18.9
2022-08-11T06:10:13.022Z,18.9
2022-08-11T06:11:14.404Z,19.4
2022-08-11T06:12:19.557Z,20.7
2022-08-11T06:13:17.089Z,20.5
2022-08-11T06:14:20.820Z,20.3
2022-08-11T06:15:10.924Z,20.3
2022-08-11T06:16:17.746Z,20.4
2022-08-11T06:17:13.711Z,20.9
2022-08-11T06:18:14.786Z,20.5
2022-08-11T06:19:13.953Z,20.5
2022-08-11T06:20:16.334Z,20.5
2022-08-11T06:21:12.755Z,19.4
2022-08-11T06:22:18.819Z,19.4
2022-08-11T06:23:17.518Z,19.4
2022-08-11T06:24:07.056Z,19.4
2022-08-11T06:25:14.879Z,19.9
2022-08-11T06:26:13.724Z,20.6
2022-08-11T06:27:17.660Z,20.5
2022-08-11T06:28:22.005Z,20.3
2022-08-11T06:29:14.113Z,20.3
2022-08-11T06:30:12.464Z,20.9
2022-08-11T06:31:19.099Z,21.8
2022-08-11T06:32:17.847Z,22.4
2022-08-11T06:33:13.496Z,22.4
2022-08-11T06:34:31.230Z,22.5
2022-08-11T06:35:16.615Z,24.4
2022-08-11T06:36:15.442Z,25.3
2022-08-11T06:37:17.459Z,25.3
2022-08-11T06:38:15.389Z,26.8
2022-08-11T06:39:07.206Z,26.8
2022-08-11T06:40:15.219Z,27.4
2022-08-11T06:41:14.583Z,27.4
2022-08-11T06:42:16.139Z,26.3
2022-08-11T06:43:16.672Z,24.8
2022-08-11T06:44:16.373Z,24.7
2022-08-11T06:45:20.314Z,26
2022-08-11T06:46:09.832Z,26
2022-08-11T06:47:22.109Z,26
2022-08-11T06:48:14.681Z,25.2
2022-08-11T06:49:13.746Z,24.6
2022-08-11T06:50:16.738Z,23.2
2022-08-11T06:51:21.132Z,23.2
2022-08-11T06:52:39.500Z,21.7
2022-08-11T06:53:18.106Z,21.1
2022-08-11T06:54:12.562Z,21.1
2022-08-11T06:56:02.592Z,20.8
2022-08-11T06:56:18.408Z,20.8
2022-08-11T06:57:35.197Z,20.8
2022-08-11T06:58:15.106Z,20.8
2022-08-11T06:59:20.000Z,20.8
2022-08-11T07:00:16.320Z,20.9
2022-08-11T07:01:14.244Z,20.9
2022-08-11T07:02:18.109Z,20.9
2022-08-11T07:03:14.367Z,20.9
2022-08-11T07:04:18.449Z,20.9
2022-08-11T07:05:14.648Z,21.3
2022-08-11T07:06:18.322Z,21.3
2022-08-11T07:07:14.850Z,21.4
2022-08-11T07:08:39.457Z,21.3
2022-08-11T07:09:06.706Z,21.3
2022-08-11T07:10:19.606Z,21.1
2022-08-11T07:11:14.476Z,21.1
2022-08-11T07:12:16.210Z,21.1
2022-08-11T07:13:47.718Z,21.1
2022-08-11T07:14:15.423Z,21.1
2022-08-11T07:15:13.655Z,21.3
2022-08-11T07:16:16.570Z,21.3
2022-08-11T07:17:17.778Z,21.5
2022-08-11T07:18:16.011Z,21.5
2022-08-11T07:19:20.709Z,21.4
2022-08-11T07:20:14.230Z,21.6
2022-08-11T07:22:07.179Z,21.6
2022-08-11T07:22:17.293Z,21.6
2022-08-11T07:23:15.070Z,21.6
2022-08-11T07:24:15.557Z,21.6
2022-08-11T07:25:14.499Z,21.6
2022-08-11T07:26:20.151Z,21.7
2022-08-11T07:27:14.869Z,21.6
2022-08-11T07:28:23.176Z,21.6
2022-08-11T07:29:14.534Z,21.8
2022-08-11T07:30:18.242Z,21.8
2022-08-11T07:31:14.753Z,21.9
2022-08-11T07:32:17.977Z,21.8
2022-08-11T07:34:18.252Z,21.9
2022-08-11T07:34:19.439Z,21.9
2022-08-11T07:35:17.339Z,22.1
2022-08-11T07:36:13.102Z,22.2
2022-08-11T07:37:17.125Z,22.2
2022-08-11T07:38:18.204Z,22.3
2022-08-11T07:39:11.181Z,22.3
2022-08-11T07:40:15.652Z,22.4
2022-08-11T07:41:14.914Z,22.4
2022-08-11T07:42:14.424Z,22.4
2022-08-11T07:43:17.600Z,22.5
2022-08-11T07:44:08.947Z,22.5
2022-08-11T07:45:08.179Z,22.4
2022-08-11T07:46:15.762Z,22.4
2022-08-11T07:47:18.547Z,22.5
2022-08-11T07:48:18.162Z,22.5
2022-08-11T07:49:14.937Z,22.8
2022-08-11T07:50:16.256Z,22.9
2022-08-11T07:51:18.350Z,22.7
2022-08-11T07:52:15.336Z,22.8
2022-08-11T07:53:14.666Z,22.8
2022-08-11T07:54:21.695Z,22.8
2022-08-11T07:55:16.944Z,22.8
2022-08-11T07:56:32.191Z,22.8
2022-08-11T07:58:22.160Z,22.8
2022-08-11T07:58:27.003Z,22.7
2022-08-11T07:59:19.089Z,22.8
2022-08-11T08:00:14.574Z,22.8
2022-08-11T08:01:26.486Z,22.8
2022-08-11T08:02:18.799Z,23
2022-08-11T08:03:14.583Z,23.1
2022-08-11T08:04:14.567Z,23.1
2022-08-11T08:05:15.122Z,22.9
2022-08-11T08:06:39.726Z,22.9
2022-08-11T08:07:14.895Z,23.1
2022-08-11T08:08:19.284Z,23.1
2022-08-11T08:09:15.747Z,23.3
2022-08-11T08:10:18.332Z,23.3
2022-08-11T08:11:27.060Z,23.5
2022-08-11T08:12:16.652Z,23.5
2022-08-11T08:13:14.407Z,23.4
2022-08-11T08:14:18.822Z,23.4
2022-08-11T08:15:14.077Z,23.4
2022-08-11T08:16:17.497Z,23.4
2022-08-11T08:17:15.364Z,23.4
2022-08-11T08:18:31.850Z,23.3
2022-08-11T08:19:13.078Z,23.3
2022-08-11T08:20:13.856Z,23.5
2022-08-11T08:21:17.044Z,23.4
2022-08-11T08:22:48.615Z,23.3
2022-08-11T08:23:12.472Z,23.3
2022-08-11T08:24:17.008Z,23.6
2022-08-11T08:25:13.701Z,23.6
2022-08-11T08:26:21.147Z,23.9
2022-08-11T08:27:15.376Z,24.1
2022-08-11T08:28:17.050Z,23.9
2022-08-11T08:29:15.199Z,23.9
2022-08-11T08:30:16.372Z,24.3
2022-08-11T08:31:15.614Z,24.2
2022-08-11T08:32:13.574Z,23.9
2022-08-11T08:33:19.115Z,23.8
2022-08-11T08:34:15.325Z,24.1
2022-08-11T08:35:17.389Z,24.1
2022-08-11T08:36:07.919Z,24.1
2022-08-11T08:37:49.567Z,23.9
2022-08-11T08:38:11.679Z,23.9
2022-08-11T08:39:19.780Z,23.9
2022-08-11T08:40:13.524Z,24.1
2022-08-11T08:41:20.783Z,24.1
2022-08-11T08:42:15.367Z,24.1
2022-08-11T08:43:17.433Z,24.3
2022-08-11T08:44:45.040Z,24.4
2022-08-11T08:45:14.952Z,24.3
2022-08-11T08:46:11.102Z,24.5
2022-08-11T08:47:14.719Z,24.3
2022-08-11T08:48:15.011Z,24.3
2022-08-11T08:50:21.134Z,24.6
2022-08-11T08:51:16.467Z,24.5
2022-08-11T08:52:42.784Z,24.5
2022-08-11T08:53:16.506Z,24.4
2022-08-11T08:54:20.412Z,24.4
2022-08-11T08:55:15.450Z,24.8
2022-08-11T08:56:14.223Z,24.8
2022-08-11T08:57:15.590Z,24.9
2022-08-11T08:58:17.862Z,24.8
2022-08-11T08:59:13.599Z,24.8
2022-08-11T09:00:25.598Z,24.8
2022-08-11T09:01:15.805Z,24.6
2022-08-11T09:02:18.689Z,24.7
2022-08-11T09:04:12.179Z,24.8
2022-08-11T09:04:22.422Z,24.6
2022-08-11T09:05:15.796Z,24.4
2022-08-11T09:06:17.535Z,24.4
2022-08-11T09:07:17.340Z,24.9
2022-08-11T09:08:16.062Z,24.9
2022-08-11T09:09:19.132Z,24.9
2022-08-11T09:10:16.196Z,25
2022-08-11T09:11:18.276Z,25
2022-08-11T09:12:14.336Z,25
2022-08-11T09:13:13.878Z,25
2022-08-11T09:14:19.046Z,24.9
2022-08-11T09:15:12.786Z,25.3
2022-08-11T09:16:15.158Z,25.4
2022-08-11T09:17:14.552Z,24.5
2022-08-11T09:18:19.603Z,24.5
2022-08-11T09:19:16.273Z,24.6
2022-08-11T09:20:16.889Z,24.6
2022-08-11T09:21:38.595Z,24.6
2022-08-11T09:22:17.606Z,24.6
2022-08-11T09:24:24.966Z,24.7
2022-08-11T09:24:28.966Z,24.7
2022-08-11T09:25:15.075Z,25.1
2022-08-11T09:26:16.737Z,25.4
2022-08-11T09:27:15.489Z,25.3
2022-08-11T09:28:22.583Z,25.4
2022-08-11T09:29:18.980Z,25.3
2022-08-11T09:30:14.710Z,24.9
2022-08-11T09:31:16.038Z,24.9
2022-08-11T09:32:16.737Z,24.9
2022-08-11T09:33:18.172Z,25.3
2022-08-11T09:34:14.925Z,25.3
2022-08-11T09:35:17.267Z,25.1
2022-08-11T09:36:17.204Z,25.1
2022-08-11T09:37:19.563Z,25.1
2022-08-11T09:38:16.238Z,25.1
2022-08-11T09:39:15.253Z,25.3
2022-08-11T09:40:19.907Z,25.4
2022-08-11T09:41:18.951Z,25.4
2022-08-11T09:42:25.766Z,25.7
2022-08-11T09:43:13.561Z,25.7
2022-08-11T09:44:15.943Z,25.5
2022-08-11T09:45:11.977Z,25.8
2022-08-11T09:46:15.859Z,25.8
2022-08-11T09:47:14.359Z,25.8
2022-08-11T09:48:18.610Z,25.6
2022-08-11T09:49:18.252Z,25.6
2022-08-11T09:50:13.795Z,25.4
2022-08-11T09:51:19.811Z,25.4
2022-08-11T09:52:13.803Z,25.4
2022-08-11T09:54:04.772Z,25.4
2022-08-11T09:54:13.822Z,25.4
2022-08-11T09:55:17.187Z,25.4
2022-08-11T09:56:11.590Z,25.4
2022-08-11T09:57:19.148Z,25.7
2022-08-11T09:58:46.917Z,25.7
2022-08-11T09:59:13.721Z,25.6
2022-08-11T10:00:17.896Z,25.6
2022-08-11T10:01:16.986Z,25.4
2022-08-11T10:02:15.891Z,25.4
2022-08-11T10:03:17.635Z,25.4
2022-08-11T10:04:19.273Z,25.3
2022-08-11T10:05:16.463Z,25.2
2022-08-11T10:06:15.264Z,25.2
2022-08-11T10:07:15.504Z,25.9
2022-08-11T10:08:15.341Z,25.9
2022-08-11T10:09:19.747Z,25.6
2022-08-11T10:10:11.848Z,25.6
2022-08-11T10:11:25.042Z,26.1
2022-08-11T10:12:16.755Z,26.1
2022-08-11T10:14:40.107Z,26.1
2022-08-11T10:14:44.066Z,26
2022-08-11T10:15:19.453Z,26
2022-08-11T10:16:20.702Z,26
2022-08-11T10:17:15.107Z,26.5
2022-08-11T10:18:18.423Z,26.6
2022-08-11T10:19:14.850Z,26.6
2022-08-11T10:20:18.922Z,26.5
2022-08-11T10:21:16.411Z,26.1
2022-08-11T10:22:13.493Z,26.1
2022-08-11T10:23:16.282Z,26.6
2022-08-11T10:24:14.654Z,26.7
2022-08-11T10:25:19.531Z,26.6
2022-08-11T10:26:12.331Z,26.4
2022-08-11T10:27:15.453Z,26.4
2022-08-11T10:29:18.432Z,26.2
2022-08-11T10:30:18.881Z,26.4
2022-08-11T10:31:18.556Z,26.4
2022-08-11T10:32:17.580Z,26.3
2022-08-11T10:33:42.918Z,26.2
2022-08-11T10:34:16.711Z,25.9
2022-08-11T10:35:14.176Z,25.9
2022-08-11T10:36:20.983Z,25.7
2022-08-11T10:37:20.154Z,25.7
2022-08-11T10:38:15.027Z,25.7
2022-08-11T10:39:22.387Z,25.7
2022-08-11T10:40:16.029Z,26.1
2022-08-11T10:41:25.075Z,25.9
2022-08-11T10:42:56.979Z,25.8
2022-08-11T10:43:15.743Z,25.8
2022-08-11T10:44:13.615Z,26.1
2022-08-11T10:45:15.601Z,26.1
2022-08-11T10:46:13.535Z,26.6
2022-08-11T10:47:16.647Z,26.6
2022-08-11T10:48:19.899Z,26.7
2022-08-11T10:49:12.948Z,26.7
2022-08-11T10:50:15.593Z,26.8
2022-08-11T10:51:15.964Z,27.2
2022-08-11T10:52:13.122Z,27.1
2022-08-11T10:53:17.039Z,26.7
2022-08-11T10:54:17.045Z,26.8
2022-08-11T10:55:16.713Z,26.7
2022-08-11T10:56:12.200Z,26.7
2022-08-11T10:57:18.662Z,26.3
2022-08-11T10:58:14.710Z,26.3
2022-08-11T10:59:17.558Z,26.6
2022-08-11T11:00:14.888Z,26.6
2022-08-11T11:01:16.019Z,27
2022-08-11T11:02:15.531Z,27
2022-08-11T11:03:28.030Z,27.1
2022-08-11T11:04:15.750Z,27.1
2022-08-11T11:05:13.891Z,27.1
2022-08-11T11:06:32.237Z,27.1
2022-08-11T11:07:15.763Z,27.1
2022-08-11T11:08:12.795Z,26.8
2022-08-11T11:09:14.873Z,26.7
2022-08-11T11:10:15.862Z,26.7
2022-08-11T11:11:22.624Z,26.7
2022-08-11T11:12:16.481Z,27.1
2022-08-11T11:13:17.562Z,27.3
2022-08-11T11:14:16.452Z,26.9
2022-08-11T11:15:37.363Z,26.8
2022-08-11T11:16:07.426Z,26.8
2022-08-11T11:17:16.180Z,27.4
2022-08-11T11:18:16.402Z,27.1
2022-08-11T11:19:15.835Z,27.1
2022-08-11T11:20:47.027Z,27.1
2022-08-11T11:21:14.277Z,26.9
2022-08-11T11:22:18.256Z,26.9
2022-08-11T11:23:13.885Z,27.2
2022-08-11T11:24:20.720Z,27.2
2022-08-11T11:25:20.840Z,27.6
2022-08-11T11:26:17.228Z,27.6
2022-08-11T11:27:07.351Z,27.6
2022-08-11T11:28:14.296Z,27.3
2022-08-11T11:29:17.474Z,27.6
2022-08-11T11:30:19.109Z,27.6
2022-08-11T11:31:19.968Z,27.6
2022-08-11T11:32:19.515Z,27.8
2022-08-11T11:33:23.927Z,27.7
2022-08-11T11:34:17.264Z,27.6
2022-08-11T11:35:13.918Z,27.5
2022-08-11T11:36:13.207Z,27.1
2022-08-11T11:37:13.867Z,27.2
2022-08-11T11:38:19.901Z,27.4
2022-08-11T11:39:08.540Z,27.4
2022-08-11T11:40:21.547Z,27.6
2022-08-11T11:41:18.574Z,27.8
2022-08-11T11:42:16.134Z,27.8
2022-08-11T11:43:15.210Z,27.6
2022-08-11T11:44:18.429Z,27.7
2022-08-11T11:45:26.974Z,27.8
2022-08-11T11:46:18.417Z,28.1
2022-08-11T11:47:12.778Z,27.9
2022-08-11T11:48:06.600Z,27.6
2022-08-11T11:50:13.454Z,27.8
2022-08-11T11:51:16.249Z,27.8
2022-08-11T11:52:16.085Z,27.3
2022-08-11T11:53:15.151Z,27.5
2022-08-11T11:54:15.993Z,27.5
2022-08-11T11:55:14.736Z,27.6
2022-08-11T11:56:13.957Z,27.6
2022-08-11T11:57:12.786Z,27.5
2022-08-11T11:58:24.366Z,27.4
2022-08-11T11:59:24.054Z,26.9
2022-08-11T12:00:14.862Z,26.9
2022-08-11T12:01:13.971Z,26.9
2022-08-11T12:02:16.854Z,26.9
2022-08-11T12:03:18.575Z,26.9
2022-08-11T12:04:17.295Z,26.6
2022-08-11T12:05:15.294Z,26.6
2022-08-11T12:06:14.542Z,26.8
2022-08-11T12:07:20.844Z,27.1
2022-08-11T12:08:16.931Z,27.1
2022-08-11T12:09:16.324Z,26.9
2022-08-11T12:10:17.427Z,26.9
2022-08-11T12:11:17.693Z,26.9
2022-08-11T12:12:17.186Z,26.9
2022-08-11T12:13:15.009Z,26.9
2022-08-11T12:14:18.441Z,27
2022-08-11T12:15:14.090Z,26.9
2022-08-11T12:16:39.030Z,26.9
2022-08-11T12:17:19.978Z,27.3
2022-08-11T12:18:14.079Z,27.5
2022-08-11T12:19:17.721Z,27.5
2022-08-11T12:20:37.543Z,27.8
2022-08-11T12:21:14.555Z,27.8
2022-08-11T12:22:16.760Z,27.7
2022-08-11T12:23:18.807Z,27.7
2022-08-11T12:24:16.596Z,27.6
2022-08-11T12:25:13.866Z,27.6
2022-08-11T12:26:30.555Z,27.5
2022-08-11T12:27:24.320Z,27.5
2022-08-11T12:28:17.082Z,27.9
2022-08-11T12:29:16.258Z,27.7
2022-08-11T12:30:16.550Z,27.8
2022-08-11T12:31:14.062Z,27.7
2022-08-11T12:32:18.355Z,27.7
2022-08-11T12:33:07.824Z,27.7
2022-08-11T12:34:12.544Z,27.6
2022-08-11T12:35:17.081Z,27.6
2022-08-11T12:36:15.615Z,27.6
2022-08-11T12:37:13.131Z,27.9
2022-08-11T12:38:15.007Z,27.5
2022-08-11T12:41:14.930Z,27.4
2022-08-11T12:41:15.283Z,27.4
2022-08-11T12:42:12.159Z,27.1
2022-08-11T12:43:42.608Z,27.2
2022-08-11T12:44:06.806Z,27.2
2022-08-11T12:45:26.828Z,27.4
2022-08-11T12:46:17.367Z,27.3
2022-08-11T12:47:16.892Z,27.3
2022-08-11T12:49:04.843Z,26.9
2022-08-11T12:49:20.804Z,26.9
2022-08-11T12:50:27.176Z,26.9
2022-08-11T12:51:14.868Z,27.4
2022-08-11T12:52:20.065Z,27.4
2022-08-11T12:53:14.364Z,27.4
2022-08-11T12:54:20.078Z,27.3
2022-08-11T12:55:17.830Z,27.3
2022-08-11T12:56:17.062Z,27.3
2022-08-11T12:57:16.392Z,27.7
2022-08-11T12:58:19.780Z,27.6
2022-08-11T12:59:16.776Z,27.8
2022-08-11T13:00:14.503Z,27.8
2022-08-11T13:01:17.128Z,27.8
2022-08-11T13:02:15.916Z,27.6
2022-08-11T13:03:13.360Z,27.8
2022-08-11T13:04:17.520Z,27.8
2022-08-11T13:05:18.529Z,27.8
2022-08-11T13:06:15.320Z,27.3
2022-08-11T13:07:14.875Z,27.1
2022-08-11T13:08:13.395Z,27.1
2022-08-11T13:09:14.665Z,27.3
2022-08-11T13:10:19.220Z,27.3
2022-08-11T13:11:08.294Z,27.7
2022-08-11T13:12:17.956Z,27.6
2022-08-11T13:14:00.140Z,27.6
2022-08-11T13:14:18.815Z,27.6
2022-08-11T13:15:16.732Z,27.5
2022-08-11T13:16:17.805Z,27.5
2022-08-11T13:17:17.246Z,27.8
2022-08-11T13:18:14.453Z,27.8
2022-08-11T13:19:14.883Z,27.4
2022-08-11T13:20:15.963Z,27.6
2022-08-11T13:21:19.889Z,27.7
2022-08-11T13:22:09.674Z,27.7
2022-08-11T13:23:11.985Z,27.6
2022-08-11T13:24:17.000Z,27.6
2022-08-11T13:25:21.568Z,27.6
2022-08-11T13:26:13.763Z,27.7
2022-08-11T13:27:16.835Z,27.6